KACT - Waco Rgnl, TX, US

Issued at 2107 UTC 18 Oct 2019
Updated at 2325 UTC 18 Oct 2019
Potential Impact None Slight Moderate High
Time2251Z 19/00Z 19/01Z 19/02Z 19/03Z 19/04Z 19/05Z 19/06Z 19/07Z 19/08Z 19/09Z 19/10Z 19/11Z 19/12Z>>
Type OBS PRVL PRVL PRVL PRVL PRVL PRVL PRVL PRVL PRVL PRVL PRVL PRVL PRVL
VIS 10 >6 >6 >6 >6 >6 >6 >6 >6 >6 >6 >6 >6 >6
CIG -- -- -- -- -- -- -- -- -- -- 120 120 120 120
Cover CLR SKC SKC SKC SKC SKC SKC SKC SKC SKC BKN BKN BKN BKN
FltCat VFR VFR VFR VFR VFR VFR VFR VFR VFR VFR VFR VFR VFR VFR
WX -- -- -- -- -- -- -- -- -- -- -- -- -- --
WDir 140 150 150 150 150 150 150 150 150 150 180 180 180 180
WSpd 8 9 9 9 9 9 9 9 9 9 8 8 8 8
WGst -- -- -- -- -- -- -- -- -- -- -- -- -- --
Raw TAF
KACT 182107Z 1821/1918 15009KT P6SM SKC
  FM190900 18008KT P6SM BKN120
  FM191500 25009KT P6SM SCT030


Raw METAR
KACT 182251Z 14008KT 10SM CLR 25/03 A2973 RMK AO2 SLP062 T02500033
KACT 182151Z 15009KT 10SM CLR 26/03 A2973 RMK AO2 SLP063 T02560028
KACT 182051Z 17008KT 10SM CLR 26/02 A2975 RMK AO2 SLP068 T02610022 56035

METAR Board
Radar Display
Forecast Discussion
For situational awareness. Not to be used for flight planning purposes.